sensor_id;sensor_type;location;lat;lon;timestamp;pressure;altitude;pressure_sealevel;temperature;humidity
41306;BME280;27051;50.376;19.152;2023-03-19T00:00:03;98289.27;;;5.85;37.03
41306;BME280;27051;50.376;19.152;2023-03-19T00:02:30;98287.18;;;5.92;36.80
41306;BME280;27051;50.376;19.152;2023-03-19T00:04:57;98286.70;;;6.00;36.73
41306;BME280;27051;50.376;19.152;2023-03-19T00:07:23;98288.98;;;6.07;36.64
41306;BME280;27051;50.376;19.152;2023-03-19T00:09:50;98287.90;;;6.10;36.69
41306;BME280;27051;50.376;19.152;2023-03-19T00:12:16;98289.04;;;6.14;36.74
41306;BME280;27051;50.376;19.152;2023-03-19T00:14:43;98287.39;;;6.14;36.87
41306;BME280;27051;50.376;19.152;2023-03-19T00:17:09;98290.21;;;6.12;37.13
41306;BME280;27051;50.376;19.152;2023-03-19T00:19:36;98288.91;;;6.03;37.49
41306;BME280;27051;50.376;19.152;2023-03-19T00:22:02;98287.73;;;5.89;37.58
41306;BME280;27051;50.376;19.152;2023-03-19T00:24:29;98293.30;;;5.74;37.77
41306;BME280;27051;50.376;19.152;2023-03-19T00:26:56;98289.73;;;5.63;37.99
41306;BME280;27051;50.376;19.152;2023-03-19T00:29:22;98289.67;;;5.53;37.94
41306;BME280;27051;50.376;19.152;2023-03-19T00:31:49;98282.11;;;5.50;37.93
41306;BME280;27051;50.376;19.152;2023-03-19T00:34:15;98281.28;;;5.47;37.95
41306;BME280;27051;50.376;19.152;2023-03-19T00:36:42;98284.33;;;5.52;38.13
41306;BME280;27051;50.376;19.152;2023-03-19T00:39:08;98284.39;;;5.49;37.97
41306;BME280;27051;50.376;19.152;2023-03-19T00:41:34;98285.28;;;5.50;38.02
41306;BME280;27051;50.376;19.152;2023-03-19T00:44:02;98278.77;;;5.54;38.16
41306;BME280;27051;50.376;19.152;2023-03-19T00:46:28;98276.70;;;5.51;38.24
41306;BME280;27051;50.376;19.152;2023-03-19T00:48:55;98271.29;;;5.41;38.20
41306;BME280;27051;50.376;19.152;2023-03-19T00:51:22;98269.17;;;5.40;38.25
41306;BME280;27051;50.376;19.152;2023-03-19T00:53:50;98265.44;;;5.42;38.01
41306;BME280;27051;50.376;19.152;2023-03-19T00:56:17;98266.92;;;5.45;38.22
41306;BME280;27051;50.376;19.152;2023-03-19T00:58:44;98269.61;;;5.47;38.29
41306;BME280;27051;50.376;19.152;2023-03-19T01:01:12;98273.27;;;5.42;38.33
41306;BME280;27051;50.376;19.152;2023-03-19T01:03:40;98275.19;;;5.38;38.49
41306;BME280;27051;50.376;19.152;2023-03-19T01:06:07;98280.77;;;5.36;38.44
41306;BME280;27051;50.376;19.152;2023-03-19T01:08:33;98281.80;;;5.32;38.30
41306;BME280;27051;50.376;19.152;2023-03-19T01:11:05;98282.34;;;5.28;38.34
41306;BME280;27051;50.376;19.152;2023-03-19T01:13:31;98279.42;;;5.23;38.38
41306;BME280;27051;50.376;19.152;2023-03-19T01:15:58;98278.23;;;5.27;38.70
41306;BME280;27051;50.376;19.152;2023-03-19T01:18:24;98279.96;;;5.27;38.59
41306;BME280;27051;50.376;19.152;2023-03-19T01:20:50;98282.73;;;5.27;38.77
41306;BME280;27051;50.376;19.152;2023-03-19T01:23:17;98280.92;;;5.26;38.75
41306;BME280;27051;50.376;19.152;2023-03-19T01:25:43;98282.12;;;5.25;39.11
41306;BME280;27051;50.376;19.152;2023-03-19T01:28:10;98281.78;;;5.20;39.08
41306;BME280;27051;50.376;19.152;2023-03-19T01:30:36;98279.73;;;5.12;38.95
41306;BME280;27051;50.376;19.152;2023-03-19T01:33:03;98279.64;;;5.06;39.04
41306;BME280;27051;50.376;19.152;2023-03-19T01:35:29;98280.31;;;4.99;39.29
41306;BME280;27051;50.376;19.152;2023-03-19T01:37:55;98281.64;;;4.94;39.33
41306;BME280;27051;50.376;19.152;2023-03-19T01:40:22;98281.64;;;4.94;39.52
41306;BME280;27051;50.376;19.152;2023-03-19T01:43:18;98278.52;;;4.90;39.63
41306;BME280;27051;50.376;19.152;2023-03-19T01:45:43;98279.60;;;4.87;39.82
41306;BME280;27051;50.376;19.152;2023-03-19T01:50:53;98276.58;;;4.75;39.59
41306;BME280;27051;50.376;19.152;2023-03-19T01:53:25;98273.15;;;4.71;39.82
41306;BME280;27051;50.376;19.152;2023-03-19T01:55:57;98272.81;;;4.72;40.16
41306;BME280;27051;50.376;19.152;2023-03-19T01:58:25;98272.40;;;4.70;40.00
41306;BME280;27051;50.376;19.152;2023-03-19T02:00:52;98274.18;;;4.61;40.07
41306;BME280;27051;50.376;19.152;2023-03-19T02:03:18;98277.36;;;4.47;40.20
41306;BME280;27051;50.376;19.152;2023-03-19T02:05:45;98278.13;;;4.44;40.35
41306;BME280;27051;50.376;19.152;2023-03-19T02:08:15;98279.86;;;4.47;40.52
41306;BME280;27051;50.376;19.152;2023-03-19T02:10:43;98282.20;;;4.50;40.70
41306;BME280;27051;50.376;19.152;2023-03-19T02:13:11;98286.52;;;4.50;40.59
41306;BME280;27051;50.376;19.152;2023-03-19T02:15:38;98282.90;;;4.44;40.76
41306;BME280;27051;50.376;19.152;2023-03-19T02:18:05;98284.29;;;4.38;40.75
41306;BME280;27051;50.376;19.152;2023-03-19T02:26:05;98283.81;;;4.28;40.94
41306;BME280;27051;50.376;19.152;2023-03-19T02:28:32;98291.27;;;4.32;41.20
41306;BME280;27051;50.376;19.152;2023-03-19T02:30:59;98291.17;;;4.30;41.30
41306;BME280;27051;50.376;19.152;2023-03-19T02:33:26;98297.27;;;4.25;41.09
41306;BME280;27051;50.376;19.152;2023-03-19T02:35:53;98297.70;;;4.22;41.49
41306;BME280;27051;50.376;19.152;2023-03-19T02:38:20;98295.23;;;4.21;41.47
41306;BME280;27051;50.376;19.152;2023-03-19T02:41:03;98294.85;;;4.18;41.51
41306;BME280;27051;50.376;19.152;2023-03-19T02:43:32;98300.04;;;4.15;41.61
41306;BME280;27051;50.376;19.152;2023-03-19T02:46:00;98297.21;;;4.12;41.65
41306;BME280;27051;50.376;19.152;2023-03-19T02:48:27;98297.05;;;4.09;41.49
41306;BME280;27051;50.376;19.152;2023-03-19T02:50:53;98295.86;;;4.07;41.54
41306;BME280;27051;50.376;19.152;2023-03-19T02:53:20;98299.30;;;4.05;41.75
41306;BME280;27051;50.376;19.152;2023-03-19T02:55:46;98297.97;;;4.06;41.61
41306;BME280;27051;50.376;19.152;2023-03-19T02:58:13;98302.14;;;4.07;41.56
41306;BME280;27051;50.376;19.152;2023-03-19T03:00:41;98300.07;;;4.07;41.58
41306;BME280;27051;50.376;19.152;2023-03-19T03:03:08;98308.17;;;4.09;41.60
41306;BME280;27051;50.376;19.152;2023-03-19T03:05:35;98304.22;;;4.07;41.59
41306;BME280;27051;50.376;19.152;2023-03-19T03:08:01;98302.46;;;4.07;41.44
41306;BME280;27051;50.376;19.152;2023-03-19T03:10:28;98305.77;;;4.07;41.28
41306;BME280;27051;50.376;19.152;2023-03-19T03:12:54;98308.95;;;4.08;41.29
41306;BME280;27051;50.376;19.152;2023-03-19T03:15:20;98309.54;;;4.11;41.41
41306;BME280;27051;50.376;19.152;2023-03-19T03:17:48;98310.38;;;4.14;41.32
41306;BME280;27051;50.376;19.152;2023-03-19T03:20:16;98312.06;;;4.16;41.23
41306;BME280;27051;50.376;19.152;2023-03-19T03:22:43;98309.52;;;4.18;41.03
41306;BME280;27051;50.376;19.152;2023-03-19T03:25:09;98309.46;;;4.21;40.98
41306;BME280;27051;50.376;19.152;2023-03-19T03:27:37;98311.04;;;4.23;41.16
41306;BME280;27051;50.376;19.152;2023-03-19T03:30:05;98309.48;;;4.25;41.16
41306;BME280;27051;50.376;19.152;2023-03-19T03:32:32;98314.48;;;4.24;40.98
41306;BME280;27051;50.376;19.152;2023-03-19T03:34:58;98315.53;;;4.28;41.13
41306;BME280;27051;50.376;19.152;2023-03-19T03:37:25;98305.63;;;4.29;40.96
41306;BME280;27051;50.376;19.152;2023-03-19T03:39:51;98308.42;;;4.30;40.63
41306;BME280;27051;50.376;19.152;2023-03-19T03:42:18;98305.38;;;4.34;40.55
41306;BME280;27051;50.376;19.152;2023-03-19T03:44:44;98307.85;;;4.39;40.84
41306;BME280;27051;50.376;19.152;2023-03-19T03:47:11;98306.48;;;4.37;41.12
41306;BME280;27051;50.376;19.152;2023-03-19T03:49:38;98301.39;;;4.31;41.20
41306;BME280;27051;50.376;19.152;2023-03-19T03:52:05;98307.28;;;4.31;40.89
41306;BME280;27051;50.376;19.152;2023-03-19T03:54:31;98307.48;;;4.35;40.85
41306;BME280;27051;50.376;19.152;2023-03-19T03:56:57;98304.15;;;4.38;40.80
41306;BME280;27051;50.376;19.152;2023-03-19T03:59:24;98304.48;;;4.40;41.09
41306;BME280;27051;50.376;19.152;2023-03-19T04:01:50;98305.15;;;4.34;41.34
41306;BME280;27051;50.376;19.152;2023-03-19T04:04:17;98303.77;;;4.29;41.33
41306;BME280;27051;50.376;19.152;2023-03-19T04:06:43;98304.01;;;4.24;41.50
41306;BME280;27051;50.376;19.152;2023-03-19T04:09:10;98304.04;;;4.19;41.63
41306;BME280;27051;50.376;19.152;2023-03-19T04:11:38;98308.58;;;4.14;41.71
41306;BME280;27051;50.376;19.152;2023-03-19T04:14:06;98307.30;;;4.07;41.70
41306;BME280;27051;50.376;19.152;2023-03-19T04:16:32;98309.73;;;4.02;41.65
41306;BME280;27051;50.376;19.152;2023-03-19T04:18:59;98306.38;;;3.99;41.67
41306;BME280;27051;50.376;19.152;2023-03-19T04:21:26;98301.41;;;3.89;41.95
41306;BME280;27051;50.376;19.152;2023-03-19T04:23:52;98306.97;;;3.84;41.79
41306;BME280;27051;50.376;19.152;2023-03-19T04:26:18;98305.08;;;3.80;41.93
41306;BME280;27051;50.376;19.152;2023-03-19T04:28:45;98304.91;;;3.77;42.04
41306;BME280;27051;50.376;19.152;2023-03-19T04:31:11;98307.04;;;3.73;42.08
41306;BME280;27051;50.376;19.152;2023-03-19T04:33:38;98308.97;;;3.72;41.99
41306;BME280;27051;50.376;19.152;2023-03-19T04:36:05;98313.60;;;3.72;41.89
41306;BME280;27051;50.376;19.152;2023-03-19T04:38:31;98311.88;;;3.70;42.29
41306;BME280;27051;50.376;19.152;2023-03-19T04:40:58;98309.98;;;3.67;42.19
41306;BME280;27051;50.376;19.152;2023-03-19T04:43:24;98305.48;;;3.67;42.19
41306;BME280;27051;50.376;19.152;2023-03-19T04:45:51;98302.28;;;3.67;42.28
41306;BME280;27051;50.376;19.152;2023-03-19T04:48:17;98302.02;;;3.67;42.38
41306;BME280;27051;50.376;19.152;2023-03-19T04:50:44;98298.42;;;3.65;42.37
41306;BME280;27051;50.376;19.152;2023-03-19T04:53:11;98298.15;;;3.66;42.48
41306;BME280;27051;50.376;19.152;2023-03-19T04:55:38;98299.84;;;3.66;42.56
41306;BME280;27051;50.376;19.152;2023-03-19T04:58:05;98297.99;;;3.66;42.71
41306;BME280;27051;50.376;19.152;2023-03-19T05:00:31;98294.28;;;3.65;42.70
41306;BME280;27051;50.376;19.152;2023-03-19T05:02:57;98296.11;;;3.64;42.80
41306;BME280;27051;50.376;19.152;2023-03-19T05:05:24;98298.92;;;3.64;42.86
41306;BME280;27051;50.376;19.152;2023-03-19T05:07:50;98303.15;;;3.62;43.04
41306;BME280;27051;50.376;19.152;2023-03-19T05:10:17;98303.21;;;3.62;42.94
41306;BME280;27051;50.376;19.152;2023-03-19T05:12:43;98308.08;;;3.63;43.04
41306;BME280;27051;50.376;19.152;2023-03-19T05:15:10;98309.95;;;3.69;43.06
41306;BME280;27051;50.376;19.152;2023-03-19T05:17:36;98308.85;;;3.77;43.15
41306;BME280;27051;50.376;19.152;2023-03-19T05:20:03;98306.31;;;3.79;43.18
41306;BME280;27051;50.376;19.152;2023-03-19T05:22:30;98310.52;;;3.81;43.39
41306;BME280;27051;50.376;19.152;2023-03-19T05:24:56;98307.81;;;3.85;43.31
41306;BME280;27051;50.376;19.152;2023-03-19T05:27:23;98308.93;;;3.92;43.26
41306;BME280;27051;50.376;19.152;2023-03-19T05:29:49;98304.86;;;3.98;43.39
41306;BME280;27051;50.376;19.152;2023-03-19T05:32:16;98307.31;;;4.03;43.26
41306;BME280;27051;50.376;19.152;2023-03-19T05:34:43;98308.05;;;4.10;43.21
41306;BME280;27051;50.376;19.152;2023-03-19T05:37:09;98313.68;;;4.18;43.27
41306;BME280;27051;50.376;19.152;2023-03-19T05:39:36;98316.59;;;4.28;43.16
41306;BME280;27051;50.376;19.152;2023-03-19T05:42:03;98311.00;;;4.38;43.14
41306;BME280;27051;50.376;19.152;2023-03-19T05:44:29;98307.45;;;4.49;43.17
41306;BME280;27051;50.376;19.152;2023-03-19T05:46:56;98304.63;;;4.58;43.01
41306;BME280;27051;50.376;19.152;2023-03-19T05:49:22;98302.02;;;4.66;42.94
41306;BME280;27051;50.376;19.152;2023-03-19T05:51:48;98304.52;;;4.73;43.07
41306;BME280;27051;50.376;19.152;2023-03-19T05:54:15;98306.08;;;4.80;43.01
41306;BME280;27051;50.376;19.152;2023-03-19T05:56:41;98304.31;;;4.90;43.15
41306;BME280;27051;50.376;19.152;2023-03-19T05:59:08;98307.40;;;5.00;43.08
41306;BME280;27051;50.376;19.152;2023-03-19T06:01:34;98306.77;;;5.11;42.86
41306;BME280;27051;50.376;19.152;2023-03-19T06:04:05;98308.14;;;5.22;42.98
41306;BME280;27051;50.376;19.152;2023-03-19T06:06:33;98306.79;;;5.33;42.88
41306;BME280;27051;50.376;19.152;2023-03-19T06:09:00;98308.58;;;5.42;42.77
41306;BME280;27051;50.376;19.152;2023-03-19T06:11:26;98309.72;;;5.51;42.83
41306;BME280;27051;50.376;19.152;2023-03-19T06:13:53;98311.67;;;5.61;42.77
41306;BME280;27051;50.376;19.152;2023-03-19T06:16:20;98309.74;;;5.71;42.70
41306;BME280;27051;50.376;19.152;2023-03-19T06:18:46;98314.13;;;5.82;42.76
41306;BME280;27051;50.376;19.152;2023-03-19T06:21:13;98316.10;;;5.95;42.61
41306;BME280;27051;50.376;19.152;2023-03-19T06:23:39;98315.82;;;6.07;42.49
41306;BME280;27051;50.376;19.152;2023-03-19T06:26:06;98318.03;;;6.18;42.40
41306;BME280;27051;50.376;19.152;2023-03-19T06:28:32;98317.16;;;6.29;42.31
41306;BME280;27051;50.376;19.152;2023-03-19T06:30:59;98317.39;;;6.42;42.50
41306;BME280;27051;50.376;19.152;2023-03-19T06:33:25;98322.92;;;6.55;42.48
41306;BME280;27051;50.376;19.152;2023-03-19T06:35:52;98324.96;;;6.67;42.28
41306;BME280;27051;50.376;19.152;2023-03-19T06:38:19;98322.77;;;6.80;41.96
41306;BME280;27051;50.376;19.152;2023-03-19T06:40:46;98322.39;;;6.91;42.01
41306;BME280;27051;50.376;19.152;2023-03-19T06:43:16;98323.48;;;7.06;42.02
41306;BME280;27051;50.376;19.152;2023-03-19T06:45:46;98329.03;;;7.24;41.76
41306;BME280;27051;50.376;19.152;2023-03-19T06:48:15;98326.80;;;7.42;41.74
41306;BME280;27051;50.376;19.152;2023-03-19T06:50:44;98333.89;;;7.60;41.45
41306;BME280;27051;50.376;19.152;2023-03-19T06:53:12;98332.44;;;7.77;41.48
41306;BME280;27051;50.376;19.152;2023-03-19T06:55:39;98333.39;;;8.00;41.42
41306;BME280;27051;50.376;19.152;2023-03-19T06:58:06;98331.71;;;8.18;41.20
41306;BME280;27051;50.376;19.152;2023-03-19T07:00:33;98329.04;;;8.36;41.03
41306;BME280;27051;50.376;19.152;2023-03-19T07:02:59;98326.39;;;8.53;40.88
41306;BME280;27051;50.376;19.152;2023-03-19T07:05:27;98327.19;;;8.70;40.74
41306;BME280;27051;50.376;19.152;2023-03-19T07:08:02;98325.92;;;8.85;40.53
41306;BME280;27051;50.376;19.152;2023-03-19T07:10:30;98327.15;;;9.02;40.65
41306;BME280;27051;50.376;19.152;2023-03-19T07:12:56;98324.98;;;9.19;40.36
41306;BME280;27051;50.376;19.152;2023-03-19T07:15:23;98316.36;;;9.38;40.54
41306;BME280;27051;50.376;19.152;2023-03-19T07:17:51;98317.48;;;9.56;40.12
41306;BME280;27051;50.376;19.152;2023-03-19T07:20:18;98319.41;;;9.68;40.22
41306;BME280;27051;50.376;19.152;2023-03-19T07:22:45;98313.61;;;9.82;40.28
41306;BME280;27051;50.376;19.152;2023-03-19T07:25:12;98316.48;;;9.95;40.02
41306;BME280;27051;50.376;19.152;2023-03-19T07:27:38;98321.16;;;10.06;39.96
41306;BME280;27051;50.376;19.152;2023-03-19T07:30:06;98325.23;;;10.13;39.76
41306;BME280;27051;50.376;19.152;2023-03-19T07:32:33;98326.70;;;10.15;39.70
41306;BME280;27051;50.376;19.152;2023-03-19T07:35:00;98332.98;;;10.17;39.77
41306;BME280;27051;50.376;19.152;2023-03-19T07:37:27;98333.14;;;10.18;39.77
41306;BME280;27051;50.376;19.152;2023-03-19T07:39:53;98332.48;;;10.16;39.66
41306;BME280;27051;50.376;19.152;2023-03-19T07:42:20;98333.47;;;10.14;39.68
41306;BME280;27051;50.376;19.152;2023-03-19T07:44:46;98332.37;;;10.13;39.75
41306;BME280;27051;50.376;19.152;2023-03-19T07:47:13;98331.45;;;10.15;39.73
41306;BME280;27051;50.376;19.152;2023-03-19T07:49:39;98330.10;;;10.23;39.75
41306;BME280;27051;50.376;19.152;2023-03-19T07:52:06;98330.83;;;10.32;39.74
41306;BME280;27051;50.376;19.152;2023-03-19T07:54:33;98329.13;;;10.43;39.54
41306;BME280;27051;50.376;19.152;2023-03-19T07:57:00;98329.73;;;10.56;39.61
41306;BME280;27051;50.376;19.152;2023-03-19T07:59:27;98323.48;;;10.70;39.45
41306;BME280;27051;50.376;19.152;2023-03-19T08:01:54;98321.36;;;10.81;39.49
41306;BME280;27051;50.376;19.152;2023-03-19T08:04:21;98319.64;;;10.93;39.23
41306;BME280;27051;50.376;19.152;2023-03-19T08:06:47;98317.24;;;11.02;39.15
41306;BME280;27051;50.376;19.152;2023-03-19T08:09:14;98316.52;;;11.19;39.04
41306;BME280;27051;50.376;19.152;2023-03-19T08:11:40;98315.64;;;11.40;39.07
41306;BME280;27051;50.376;19.152;2023-03-19T08:14:07;98315.46;;;11.62;38.91
41306;BME280;27051;50.376;19.152;2023-03-19T08:16:33;98315.13;;;11.83;38.55
41306;BME280;27051;50.376;19.152;2023-03-19T08:19:00;98316.98;;;11.98;38.29
41306;BME280;27051;50.376;19.152;2023-03-19T08:21:26;98312.24;;;12.12;37.60
41306;BME280;27051;50.376;19.152;2023-03-19T08:23:53;98306.81;;;12.21;37.77
41306;BME280;27051;50.376;19.152;2023-03-19T08:26:20;98303.02;;;12.32;37.52
41306;BME280;27051;50.376;19.152;2023-03-19T08:28:47;98305.27;;;12.48;37.64
41306;BME280;27051;50.376;19.152;2023-03-19T08:31:16;98305.29;;;12.61;37.36
41306;BME280;27051;50.376;19.152;2023-03-19T08:33:44;98306.09;;;12.61;37.28
41306;BME280;27051;50.376;19.152;2023-03-19T08:36:12;98305.13;;;12.54;37.09
41306;BME280;27051;50.376;19.152;2023-03-19T08:38:40;98305.38;;;12.55;37.08
41306;BME280;27051;50.376;19.152;2023-03-19T08:41:07;98305.52;;;12.64;37.10
41306;BME280;27051;50.376;19.152;2023-03-19T08:43:35;98310.05;;;12.75;36.95
41306;BME280;27051;50.376;19.152;2023-03-19T08:46:04;98310.45;;;12.89;36.73
41306;BME280;27051;50.376;19.152;2023-03-19T08:48:30;98310.20;;;13.07;36.79
41306;BME280;27051;50.376;19.152;2023-03-19T08:51:00;98313.39;;;13.22;36.39
41306;BME280;27051;50.376;19.152;2023-03-19T08:53:28;98308.95;;;13.36;36.20
41306;BME280;27051;50.376;19.152;2023-03-19T08:55:58;98307.30;;;13.49;36.05
41306;BME280;27051;50.376;19.152;2023-03-19T08:58:26;98302.95;;;13.61;35.72
41306;BME280;27051;50.376;19.152;2023-03-19T09:01:00;98296.26;;;13.74;35.79
41306;BME280;27051;50.376;19.152;2023-03-19T09:03:28;98299.98;;;13.94;35.36
41306;BME280;27051;50.376;19.152;2023-03-19T09:06:00;98296.66;;;14.10;35.43
41306;BME280;27051;50.376;19.152;2023-03-19T09:08:29;98298.19;;;14.26;35.07
41306;BME280;27051;50.376;19.152;2023-03-19T09:10:59;98292.11;;;14.45;35.49
41306;BME280;27051;50.376;19.152;2023-03-19T09:13:26;98296.18;;;14.68;35.31
41306;BME280;27051;50.376;19.152;2023-03-19T09:15:53;98294.89;;;14.93;34.69
41306;BME280;27051;50.376;19.152;2023-03-19T09:18:23;98296.08;;;15.21;34.50
41306;BME280;27051;50.376;19.152;2023-03-19T09:20:51;98290.63;;;15.51;34.52
41306;BME280;27051;50.376;19.152;2023-03-19T09:23:18;98285.17;;;15.89;34.19
41306;BME280;27051;50.376;19.152;2023-03-19T09:25:46;98285.59;;;16.20;33.44
41306;BME280;27051;50.376;19.152;2023-03-19T09:28:12;98289.71;;;16.52;33.36
41306;BME280;27051;50.376;19.152;2023-03-19T09:30:38;98288.11;;;16.81;33.22
41306;BME280;27051;50.376;19.152;2023-03-19T09:33:05;98291.38;;;16.99;32.87
41306;BME280;27051;50.376;19.152;2023-03-19T09:35:32;98295.50;;;17.01;32.14
41306;BME280;27051;50.376;19.152;2023-03-19T09:37:59;98291.00;;;17.12;32.60
41306;BME280;27051;50.376;19.152;2023-03-19T09:40:33;98294.84;;;17.43;32.23
41306;BME280;27051;50.376;19.152;2023-03-19T09:44:04;98284.56;;;17.80;31.99
41306;BME280;27051;50.376;19.152;2023-03-19T09:46:13;98284.71;;;17.98;31.56
41306;BME280;27051;50.376;19.152;2023-03-19T09:51:24;98278.77;;;18.50;31.31
41306;BME280;27051;50.376;19.152;2023-03-19T09:54:03;98275.46;;;18.74;30.27
41306;BME280;27051;50.376;19.152;2023-03-19T09:56:33;98272.68;;;18.92;30.26
41306;BME280;27051;50.376;19.152;2023-03-19T09:59:01;98268.84;;;19.15;30.07
41306;BME280;27051;50.376;19.152;2023-03-19T10:01:35;98267.53;;;19.44;30.10
41306;BME280;27051;50.376;19.152;2023-03-19T10:06:43;98268.50;;;20.01;29.00
41306;BME280;27051;50.376;19.152;2023-03-19T10:12:23;98264.80;;;20.06;28.53
41306;BME280;27051;50.376;19.152;2023-03-19T10:17:38;98262.30;;;20.12;28.80
41306;BME280;27051;50.376;19.152;2023-03-19T10:25:34;98255.20;;;20.82;27.08
41306;BME280;27051;50.376;19.152;2023-03-19T10:28:18;98253.02;;;21.00;26.28
41306;BME280;27051;50.376;19.152;2023-03-19T10:30:54;98247.38;;;21.09;26.84
41306;BME280;27051;50.376;19.152;2023-03-19T10:33:38;98249.34;;;21.31;26.60
41306;BME280;27051;50.376;19.152;2023-03-19T10:36:09;98243.65;;;21.55;26.77
41306;BME280;27051;50.376;19.152;2023-03-19T10:38:42;98244.52;;;21.85;26.24
41306;BME280;27051;50.376;19.152;2023-03-19T10:41:34;98240.84;;;22.15;25.86
41306;BME280;27051;50.376;19.152;2023-03-19T10:47:24;98239.78;;;23.42;25.08
41306;BME280;27051;50.376;19.152;2023-03-19T10:49:51;98240.11;;;23.82;25.01
41306;BME280;27051;50.376;19.152;2023-03-19T10:52:44;98239.05;;;23.87;24.52
41306;BME280;27051;50.376;19.152;2023-03-19T10:55:18;98237.11;;;23.66;24.20
41306;BME280;27051;50.376;19.152;2023-03-19T10:57:50;98230.83;;;23.47;23.81
41306;BME280;27051;50.376;19.152;2023-03-19T11:00:19;98231.13;;;23.48;23.77
41306;BME280;27051;50.376;19.152;2023-03-19T11:02:49;98227.67;;;23.56;23.80
41306;BME280;27051;50.376;19.152;2023-03-19T11:07:50;98218.93;;;24.38;23.26
41306;BME280;27051;50.376;19.152;2023-03-19T11:10:21;98215.95;;;24.81;22.96
41306;BME280;27051;50.376;19.152;2023-03-19T11:13:03;98209.27;;;25.06;22.85
41306;BME280;27051;50.376;19.152;2023-03-19T11:15:36;98208.28;;;25.51;22.55
41306;BME280;27051;50.376;19.152;2023-03-19T11:18:22;98196.73;;;26.12;22.33
41306;BME280;27051;50.376;19.152;2023-03-19T11:20:58;98182.91;;;27.05;22.06
41306;BME280;27051;50.376;19.152;2023-03-19T11:23:27;98185.08;;;28.01;21.21
41306;BME280;27051;50.376;19.152;2023-03-19T11:25:58;98180.15;;;28.73;20.60
41306;BME280;27051;50.376;19.152;2023-03-19T11:28:25;98180.74;;;29.37;20.02
41306;BME280;27051;50.376;19.152;2023-03-19T11:31:14;98176.88;;;29.89;19.51
41306;BME280;27051;50.376;19.152;2023-03-19T11:37:04;98162.31;;;31.36;18.47
41306;BME280;27051;50.376;19.152;2023-03-19T11:40:12;98162.73;;;31.75;17.81
41306;BME280;27051;50.376;19.152;2023-03-19T11:42:56;98159.19;;;32.11;17.50
41306;BME280;27051;50.376;19.152;2023-03-19T11:45:40;98157.70;;;32.43;17.16
41306;BME280;27051;50.376;19.152;2023-03-19T11:48:25;98153.52;;;32.55;16.54
41306;BME280;27051;50.376;19.152;2023-03-19T11:53:27;98140.57;;;33.33;16.09
41306;BME280;27051;50.376;19.152;2023-03-19T12:01:19;98129.48;;;33.52;15.60
41306;BME280;27051;50.376;19.152;2023-03-19T12:04:13;98127.16;;;33.64;15.23
41306;BME280;27051;50.376;19.152;2023-03-19T12:07:15;98132.73;;;33.61;15.24
41306;BME280;27051;50.376;19.152;2023-03-19T12:12:26;98132.04;;;34.48;14.90
41306;BME280;27051;50.376;19.152;2023-03-19T12:20:29;98121.40;;;35.42;14.27
41306;BME280;27051;50.376;19.152;2023-03-19T12:23:11;98119.78;;;35.45;13.94
41306;BME280;27051;50.376;19.152;2023-03-19T12:36:10;98107.54;;;35.53;13.46
41306;BME280;27051;50.376;19.152;2023-03-19T12:38:43;98107.75;;;35.04;13.58
41306;BME280;27051;50.376;19.152;2023-03-19T12:41:22;98101.46;;;34.85;13.58
41306;BME280;27051;50.376;19.152;2023-03-19T12:51:32;98091.05;;;35.26;13.57
41306;BME280;27051;50.376;19.152;2023-03-19T12:54:11;98088.02;;;35.60;13.26
41306;BME280;27051;50.376;19.152;2023-03-19T12:56:51;98086.27;;;35.87;13.31
41306;BME280;27051;50.376;19.152;2023-03-19T12:59:25;98083.36;;;36.13;13.05
41306;BME280;27051;50.376;19.152;2023-03-19T13:02:27;98083.48;;;36.35;12.96
41306;BME280;27051;50.376;19.152;2023-03-19T13:05:03;98080.57;;;36.74;12.71
41306;BME280;27051;50.376;19.152;2023-03-19T13:07:49;98079.14;;;36.73;12.56
41306;BME280;27051;50.376;19.152;2023-03-19T13:10:18;98077.08;;;36.86;12.30
41306;BME280;27051;50.376;19.152;2023-03-19T13:12:47;98080.20;;;37.13;12.53
41306;BME280;27051;50.376;19.152;2023-03-19T13:15:45;98079.66;;;37.78;12.39
41306;BME280;27051;50.376;19.152;2023-03-19T13:23:40;98075.58;;;37.04;12.08
41306;BME280;27051;50.376;19.152;2023-03-19T13:26:10;98069.84;;;36.60;11.96
41306;BME280;27051;50.376;19.152;2023-03-19T13:31:35;98069.08;;;35.62;12.19
41306;BME280;27051;50.376;19.152;2023-03-19T13:34:06;98070.46;;;35.59;12.20
41306;BME280;27051;50.376;19.152;2023-03-19T13:36:39;98077.46;;;35.66;12.26
41306;BME280;27051;50.376;19.152;2023-03-19T13:39:15;98075.13;;;35.43;12.47
41306;BME280;27051;50.376;19.152;2023-03-19T13:44:38;98074.73;;;35.16;12.89
41306;BME280;27051;50.376;19.152;2023-03-19T13:52:51;98059.49;;;35.72;12.43
41306;BME280;27051;50.376;19.152;2023-03-19T13:58:17;98051.30;;;35.40;12.37
41306;BME280;27051;50.376;19.152;2023-03-19T14:03:19;98053.39;;;35.33;12.56
41306;BME280;27051;50.376;19.152;2023-03-19T14:05:47;98049.52;;;34.77;12.43
41306;BME280;27051;50.376;19.152;2023-03-19T14:08:19;98045.89;;;34.17;12.84
41306;BME280;27051;50.376;19.152;2023-03-19T14:10:49;98050.52;;;34.21;12.90
41306;BME280;27051;50.376;19.152;2023-03-19T14:13:25;98047.68;;;34.33;12.95
41306;BME280;27051;50.376;19.152;2023-03-19T14:16:04;98041.19;;;34.23;12.91
41306;BME280;27051;50.376;19.152;2023-03-19T14:18:39;98033.89;;;34.03;13.12
41306;BME280;27051;50.376;19.152;2023-03-19T14:21:13;98036.60;;;33.87;13.16
41306;BME280;27051;50.376;19.152;2023-03-19T14:23:41;98034.73;;;33.62;13.03
41306;BME280;27051;50.376;19.152;2023-03-19T14:26:22;98033.54;;;33.38;13.12
41306;BME280;27051;50.376;19.152;2023-03-19T14:28:54;98028.02;;;32.80;13.50
41306;BME280;27051;50.376;19.152;2023-03-19T14:33:57;98021.95;;;30.68;13.86
41306;BME280;27051;50.376;19.152;2023-03-19T14:36:25;98023.44;;;29.90;14.20
41306;BME280;27051;50.376;19.152;2023-03-19T14:38:56;98028.31;;;29.34;14.34